createdAt,value
2022-10-01T00:02:07.515Z,12.18
2022-10-01T00:04:37.478Z,12.32
2022-10-01T00:07:09.828Z,12.24
2022-10-01T00:09:38.717Z,12.21
2022-10-01T00:12:06.350Z,12.21
2022-10-01T00:14:33.779Z,12.22
2022-10-01T00:17:01.442Z,11.72
2022-10-01T00:19:28.824Z,11.82
2022-10-01T00:21:56.102Z,11.93
2022-10-01T00:24:24.030Z,11.96
2022-10-01T00:26:51.917Z,12.16
2022-10-01T00:29:20.108Z,12.35
2022-10-01T00:31:48.115Z,12.28
2022-10-01T00:34:15.637Z,12.29
2022-10-01T00:36:43.362Z,12.20
2022-10-01T00:39:12.233Z,12.03
2022-10-01T00:41:40.552Z,12.09
2022-10-01T00:44:32.475Z,11.34
2022-10-01T00:47:20.384Z,11.72
2022-10-01T00:49:50.857Z,11.70
2022-10-01T00:52:25.020Z,11.78
2022-10-01T00:54:58.280Z,11.90
2022-10-01T00:57:27.697Z,11.80
2022-10-01T01:00:00.150Z,11.75
2022-10-01T01:02:27.869Z,11.69
2022-10-01T01:04:56.312Z,11.67
2022-10-01T01:07:24.183Z,11.67
2022-10-01T01:09:55.205Z,11.86
2022-10-01T01:13:02.047Z,11.94
2022-10-01T01:15:48.313Z,11.85
2022-10-01T01:18:31.926Z,12.02
2022-10-01T01:21:14.366Z,11.77
2022-10-01T01:23:54.251Z,11.56
2022-10-01T01:26:55.042Z,11.61
2022-10-01T01:29:53.004Z,11.82
2022-10-01T01:32:32.965Z,11.53
2022-10-01T01:35:04.712Z,11.47
2022-10-01T01:37:38.147Z,11.47
2022-10-01T01:40:12.437Z,11.44
2022-10-01T01:42:44.219Z,11.39
2022-10-01T01:45:17.788Z,11.20
2022-10-01T01:47:46.715Z,11.31
2022-10-01T01:50:16.810Z,11.47
2022-10-01T01:52:44.201Z,11.54
2022-10-01T01:55:11.894Z,11.49
2022-10-01T01:57:44.300Z,11.48
2022-10-01T02:00:13.044Z,11.69
2022-10-01T02:02:47.079Z,11.64
2022-10-01T02:05:19.262Z,11.65
2022-10-01T02:08:03.770Z,11.59
2022-10-01T02:10:34.173Z,11.59
2022-10-01T02:13:35.290Z,11.68
2022-10-01T02:16:19.288Z,11.51
2022-10-01T02:18:57.786Z,11.21
2022-10-01T02:21:35.535Z,11.11
2022-10-01T02:24:31.882Z,11.10
2022-10-01T02:27:04.144Z,10.97
2022-10-01T02:29:34.912Z,10.97
2022-10-01T02:32:02.832Z,11.07
2022-10-01T02:34:31.863Z,11.13
2022-10-01T02:37:03.439Z,11.12
2022-10-01T02:39:34.742Z,11.18
2022-10-01T02:42:04.312Z,11.24
2022-10-01T02:44:38.274Z,10.86
2022-10-01T02:47:21.708Z,11.07
2022-10-01T02:49:51.204Z,10.97
2022-10-01T02:52:31.986Z,11.07
2022-10-01T02:55:07.744Z,11.00
2022-10-01T02:57:36.971Z,11.06
2022-10-01T03:00:11.407Z,11.16
2022-10-01T03:02:39.928Z,10.94
2022-10-01T03:05:08.303Z,10.72
2022-10-01T03:07:36.444Z,10.78
2022-10-01T03:10:05.987Z,10.87
2022-10-01T03:12:33.582Z,10.72
2022-10-01T03:15:01.359Z,10.67
2022-10-01T03:17:29.709Z,10.77
2022-10-01T03:19:58.088Z,10.94
2022-10-01T03:22:25.534Z,11.15
2022-10-01T03:24:54.097Z,11.08
2022-10-01T03:27:22.704Z,10.90
2022-10-01T03:29:50.410Z,10.80
2022-10-01T03:32:18.431Z,10.46
2022-10-01T03:34:46.974Z,10.46
2022-10-01T03:37:14.465Z,10.61
2022-10-01T03:39:43.282Z,10.57
2022-10-01T03:42:11.890Z,10.67
2022-10-01T03:44:39.744Z,10.74
2022-10-01T03:47:08.214Z,10.67
2022-10-01T03:49:38.162Z,10.75
2022-10-01T03:52:06.819Z,10.78
2022-10-01T03:54:34.680Z,10.89
2022-10-01T03:57:02.768Z,11.00
2022-10-01T03:59:30.127Z,10.79
2022-10-01T04:01:58.256Z,10.72
2022-10-01T04:04:26.726Z,10.77
2022-10-01T04:06:54.662Z,10.73
2022-10-01T04:09:25.631Z,10.75
2022-10-01T04:11:53.580Z,10.20
2022-10-01T04:14:21.049Z,10.28
2022-10-01T04:16:50.759Z,10.20
2022-10-01T04:19:19.697Z,9.97
2022-10-01T04:21:47.181Z,10.23
2022-10-01T04:24:14.648Z,10.35
2022-10-01T04:26:42.681Z,10.33
2022-10-01T04:29:10.100Z,10.49
2022-10-01T04:31:38.009Z,10.48
2022-10-01T04:34:07.208Z,10.68
2022-10-01T04:36:34.855Z,10.64
2022-10-01T04:39:03.020Z,10.75
2022-10-01T04:41:31.912Z,10.97
2022-10-01T04:44:00.862Z,10.77
2022-10-01T04:46:30.664Z,10.66
2022-10-01T04:48:58.842Z,11.05
2022-10-01T04:51:26.402Z,11.12
2022-10-01T04:53:54.065Z,11.22
2022-10-01T04:56:21.981Z,11.33
2022-10-01T04:58:49.498Z,11.38
2022-10-01T05:01:17.351Z,11.58
2022-10-01T05:03:45.614Z,11.27
2022-10-01T05:06:13.137Z,11.35
2022-10-01T05:08:41.340Z,11.56
2022-10-01T05:11:10.514Z,11.63
2022-10-01T05:13:38.158Z,11.75
2022-10-01T05:16:06.166Z,11.68
2022-10-01T05:18:35.579Z,11.65
2022-10-01T05:21:07.596Z,11.59
2022-10-01T05:23:35.346Z,11.75
2022-10-01T05:26:05.921Z,11.94
2022-10-01T05:28:34.737Z,12.02
2022-10-01T05:31:07.530Z,12.17
2022-10-01T05:33:35.255Z,12.32
2022-10-01T05:36:07.019Z,12.32
2022-10-01T05:38:37.434Z,12.25
2022-10-01T05:41:05.952Z,11.44
2022-10-01T05:43:33.479Z,11.48
2022-10-01T05:46:02.288Z,11.72
2022-10-01T05:48:37.269Z,11.76
2022-10-01T05:51:08.455Z,11.99
2022-10-01T05:53:37.900Z,12.15
2022-10-01T05:56:07.097Z,12.44
2022-10-01T05:58:34.963Z,12.49
2022-10-01T06:01:05.135Z,12.54
2022-10-01T06:03:33.476Z,12.32
2022-10-01T06:06:01.723Z,12.19
2022-10-01T06:08:29.473Z,11.91
2022-10-01T06:11:02.063Z,12.36
2022-10-01T06:13:29.838Z,12.64
2022-10-01T06:15:59.183Z,13.06
2022-10-01T06:18:27.532Z,13.36
2022-10-01T06:20:54.955Z,13.66
2022-10-01T06:23:23.664Z,13.68
2022-10-01T06:25:51.599Z,13.82
2022-10-01T06:28:19.466Z,13.97
2022-10-01T06:30:47.703Z,14.25
2022-10-01T06:33:17.337Z,14.49
2022-10-01T06:35:50.057Z,14.75
2022-10-01T06:38:20.300Z,14.93
2022-10-01T06:41:14.648Z,14.97
2022-10-01T06:43:42.462Z,15.26
2022-10-01T06:46:11.340Z,15.53
2022-10-01T06:48:38.722Z,15.61
2022-10-01T06:51:06.720Z,15.74
2022-10-01T06:53:34.716Z,16.11
2022-10-01T06:56:10.939Z,16.36
2022-10-01T06:58:38.773Z,16.77
2022-10-01T07:01:06.292Z,17.11
2022-10-01T07:03:34.331Z,17.31
2022-10-01T07:06:05.504Z,17.44
2022-10-01T07:08:33.562Z,17.76
2022-10-01T07:11:03.320Z,18.20
2022-10-01T07:13:31.665Z,18.28
2022-10-01T07:15:59.353Z,18.59
2022-10-01T07:18:29.931Z,18.83
2022-10-01T07:20:58.095Z,19.17
2022-10-01T07:23:25.605Z,19.48
2022-10-01T07:25:53.797Z,19.70
2022-10-01T07:28:26.215Z,19.93
2022-10-01T07:31:04.025Z,20.25
2022-10-01T07:33:31.853Z,20.40
2022-10-01T07:36:04.662Z,20.35
2022-10-01T07:38:33.824Z,20.16
2022-10-01T07:41:03.142Z,20.29
2022-10-01T07:43:34.865Z,20.72
2022-10-01T07:46:03.719Z,20.76
2022-10-01T07:48:31.311Z,20.51
2022-10-01T07:50:58.970Z,20.25
2022-10-01T07:53:28.934Z,20.27
2022-10-01T07:55:57.008Z,20.27
2022-10-01T07:58:25.226Z,20.27
2022-10-01T08:00:58.908Z,20.34
2022-10-01T08:03:26.995Z,20.43
2022-10-01T08:05:54.859Z,20.41
2022-10-01T08:08:22.755Z,20.76
2022-10-01T08:10:50.801Z,20.94
2022-10-01T08:13:19.212Z,20.77
2022-10-01T08:15:53.697Z,20.71
2022-10-01T08:18:22.925Z,20.60
2022-10-01T08:20:50.799Z,20.59
2022-10-01T08:23:18.837Z,20.64
2022-10-01T08:25:48.151Z,20.68
2022-10-01T08:28:16.716Z,20.69
2022-10-01T08:30:44.213Z,20.61
2022-10-01T08:33:14.648Z,20.66
2022-10-01T08:35:43.867Z,20.68
2022-10-01T08:38:12.867Z,20.75
2022-10-01T08:40:48.063Z,20.68
2022-10-01T08:43:30.947Z,20.53
2022-10-01T08:46:06.277Z,20.71
2022-10-01T08:48:47.805Z,20.42
2022-10-01T08:51:35.470Z,20.36
2022-10-01T08:54:35.543Z,20.22
2022-10-01T08:57:06.802Z,20.13
2022-10-01T09:03:09.235Z,20.54
2022-10-01T09:05:55.855Z,20.54
2022-10-01T09:08:45.093Z,20.09
2022-10-01T09:11:54.142Z,20.34
2022-10-01T09:14:37.669Z,20.36
2022-10-01T09:17:42.004Z,20.11
2022-10-01T09:20:30.695Z,20.03
2022-10-01T09:23:12.707Z,19.96
2022-10-01T09:25:41.199Z,19.96
2022-10-01T09:28:21.742Z,19.83
2022-10-01T09:30:55.978Z,19.60
2022-10-01T09:33:30.988Z,19.62
2022-10-01T09:36:10.457Z,19.21
2022-10-01T09:38:48.567Z,19.23
2022-10-01T09:41:16.300Z,19.06
2022-10-01T09:43:44.583Z,18.98
2022-10-01T09:46:17.353Z,18.85
2022-10-01T09:48:56.850Z,18.93
2022-10-01T09:51:41.253Z,18.85
2022-10-01T09:54:19.559Z,18.78
2022-10-01T09:56:53.814Z,18.80
2022-10-01T09:59:27.584Z,18.47
2022-10-01T10:01:59.311Z,18.33
2022-10-01T10:04:27.908Z,18.11
2022-10-01T10:07:06.261Z,18.08
2022-10-01T10:09:36.025Z,18.09
2022-10-01T10:12:03.899Z,17.69
2022-10-01T10:14:35.770Z,17.83
2022-10-01T10:17:12.982Z,18.11
2022-10-01T10:19:41.498Z,18.17
2022-10-01T10:22:13.929Z,18.19
2022-10-01T10:24:41.692Z,18.38
2022-10-01T10:27:27.005Z,18.19
2022-10-01T10:30:15.005Z,18.28
2022-10-01T10:32:44.943Z,18.11
2022-10-01T10:35:17.412Z,18.13
2022-10-01T10:37:49.366Z,18.14
2022-10-01T10:40:28.462Z,18.06
2022-10-01T10:42:59.755Z,18.13
2022-10-01T10:45:39.046Z,18.27
2022-10-01T10:48:15.539Z,18.16
2022-10-01T10:50:45.719Z,18.20
2022-10-01T10:53:24.626Z,18.07
2022-10-01T10:56:01.292Z,18.19
2022-10-01T10:58:33.437Z,18.24
2022-10-01T11:01:16.528Z,18.34
2022-10-01T11:03:57.964Z,18.20
2022-10-01T11:06:25.639Z,18.19
2022-10-01T11:09:05.109Z,18.06
2022-10-01T11:12:00.318Z,18.08
2022-10-01T11:15:01.849Z,17.94
2022-10-01T11:18:09.633Z,18.00
2022-10-01T11:20:52.157Z,18.13
2022-10-01T11:23:57.123Z,18.10
2022-10-01T11:26:53.596Z,18.28
2022-10-01T11:29:48.353Z,18.31
2022-10-01T11:32:42.797Z,18.32
2022-10-01T11:35:34.556Z,18.80
2022-10-01T11:38:33.317Z,19.07
2022-10-01T11:41:20.039Z,19.28
2022-10-01T11:44:19.082Z,19.22
2022-10-01T11:46:46.544Z,19.25
2022-10-01T11:49:29.738Z,19.28
2022-10-01T11:52:23.780Z,19.05
2022-10-01T11:55:22.026Z,18.58
2022-10-01T11:58:16.003Z,18.34
2022-10-01T12:00:54.938Z,18.73
2022-10-01T12:03:25.629Z,18.63
2022-10-01T12:05:56.685Z,18.76
2022-10-01T12:08:30.503Z,18.85
2022-10-01T12:11:11.957Z,19.18
2022-10-01T12:13:45.669Z,19.42
2022-10-01T12:16:13.260Z,19.52
2022-10-01T12:18:51.956Z,19.83
2022-10-01T12:21:30.579Z,20.05
2022-10-01T12:24:05.640Z,20.25
2022-10-01T12:26:41.787Z,20.30
2022-10-01T12:29:36.523Z,20.27
2022-10-01T12:32:24.421Z,20.16
2022-10-01T12:35:26.363Z,20.25
2022-10-01T12:38:28.272Z,20.70
2022-10-01T12:41:11.319Z,21.01
2022-10-01T12:43:57.169Z,20.77
2022-10-01T12:46:53.332Z,20.71
2022-10-01T12:49:35.948Z,20.72
2022-10-01T12:52:16.019Z,21.09
2022-10-01T12:54:51.862Z,21.42
2022-10-01T12:57:40.741Z,21.78
2022-10-01T13:00:25.239Z,21.96
2022-10-01T13:03:18.847Z,22.23
2022-10-01T13:05:46.450Z,22.13
2022-10-01T13:08:17.503Z,22.34
2022-10-01T13:10:54.253Z,21.95
2022-10-01T13:13:26.506Z,21.54
2022-10-01T13:16:30.230Z,21.36
2022-10-01T13:19:08.484Z,21.33
2022-10-01T13:22:08.063Z,21.27
2022-10-01T13:25:01.533Z,21.19
2022-10-01T13:27:42.672Z,21.22
2022-10-01T13:30:22.503Z,21.21
2022-10-01T13:32:53.570Z,21.40
2022-10-01T13:35:21.664Z,21.50
2022-10-01T13:40:27.153Z,21.62
2022-10-01T13:43:00.203Z,21.32
2022-10-01T13:45:40.542Z,21.64
2022-10-01T13:48:11.452Z,21.73
2022-10-01T13:50:40.361Z,21.72
2022-10-01T13:53:21.042Z,21.86
2022-10-01T13:55:49.036Z,21.93
2022-10-01T13:58:31.718Z,21.45
2022-10-01T14:01:03.833Z,21.42
2022-10-01T14:03:36.811Z,21.70
2022-10-01T14:06:07.995Z,22.43
2022-10-01T14:09:01.203Z,22.90
2022-10-01T14:11:51.658Z,23.37
2022-10-01T14:14:52.002Z,23.44
2022-10-01T14:17:28.240Z,22.90
2022-10-01T14:19:57.718Z,23.43
2022-10-01T14:22:49.659Z,23.52
2022-10-01T14:25:39.474Z,23.31
2022-10-01T14:28:16.809Z,23.21
2022-10-01T14:31:13.299Z,22.64
2022-10-01T14:33:56.358Z,22.61
2022-10-01T14:36:35.506Z,22.73
2022-10-01T14:39:24.465Z,22.74
2022-10-01T14:41:55.223Z,22.78
2022-10-01T14:44:37.518Z,22.58
2022-10-01T14:47:20.747Z,23.40
2022-10-01T14:49:49.358Z,24.04
2022-10-01T14:52:20.422Z,23.60
2022-10-01T14:54:57.503Z,23.44
2022-10-01T14:57:28.718Z,23.82
2022-10-01T14:59:58.348Z,23.73
2022-10-01T15:02:27.961Z,24.05
2022-10-01T15:04:57.413Z,24.88
2022-10-01T15:07:32.879Z,24.67
2022-10-01T15:10:08.489Z,24.57
2022-10-01T15:12:41.635Z,24.55
2022-10-01T15:15:19.791Z,24.09
2022-10-01T15:17:48.605Z,23.21
2022-10-01T15:20:18.296Z,22.62
2022-10-01T15:22:49.370Z,22.33
2022-10-01T15:25:22.489Z,21.86
2022-10-01T15:27:50.426Z,21.55
2022-10-01T15:30:18.891Z,21.51
2022-10-01T15:32:51.220Z,21.52
2022-10-01T15:35:22.343Z,21.27
2022-10-01T15:37:52.556Z,21.15
2022-10-01T15:40:35.900Z,21.08
2022-10-01T15:43:15.028Z,21.03
2022-10-01T15:45:44.231Z,20.72
2022-10-01T15:48:30.482Z,20.72
2022-10-01T15:51:27.708Z,20.62
2022-10-01T15:54:09.366Z,20.59
2022-10-01T15:56:37.789Z,20.40
2022-10-01T15:59:25.828Z,20.58
2022-10-01T16:01:53.796Z,20.52
2022-10-01T16:04:21.904Z,20.49
2022-10-01T16:06:53.136Z,19.76
2022-10-01T16:09:24.073Z,19.82
2022-10-01T16:12:03.390Z,19.78
2022-10-01T16:14:41.112Z,19.67
2022-10-01T16:17:18.056Z,19.69
2022-10-01T16:19:55.076Z,19.87
2022-10-01T16:22:29.062Z,19.82
2022-10-01T16:25:01.749Z,19.55
2022-10-01T16:27:44.289Z,19.47
2022-10-01T16:30:23.152Z,19.49
2022-10-01T16:32:50.765Z,19.39
2022-10-01T16:35:26.031Z,19.37
2022-10-01T16:37:57.112Z,19.26
2022-10-01T16:40:33.890Z,19.07
2022-10-01T16:43:02.740Z,19.04
2022-10-01T16:45:36.904Z,18.82
2022-10-01T16:48:15.854Z,18.85
2022-10-01T16:50:46.645Z,18.76
2022-10-01T16:53:17.291Z,18.56
2022-10-01T16:55:46.432Z,18.58
2022-10-01T16:58:14.081Z,18.22
2022-10-01T17:00:42.171Z,17.96
2022-10-01T17:03:19.151Z,18.18
2022-10-01T17:05:47.262Z,18.08
2022-10-01T17:08:16.069Z,17.79
2022-10-01T17:10:58.590Z,17.91
2022-10-01T17:13:28.269Z,17.96
2022-10-01T17:15:56.459Z,17.99
2022-10-01T17:18:24.003Z,18.07
2022-10-01T17:20:51.997Z,18.09
2022-10-01T17:23:21.922Z,17.93
2022-10-01T17:25:50.141Z,17.98
2022-10-01T17:28:20.476Z,17.85
2022-10-01T17:30:49.454Z,17.83
2022-10-01T17:33:19.624Z,18.00
2022-10-01T17:35:54.898Z,17.73
2022-10-01T17:38:23.277Z,17.56
2022-10-01T17:40:56.449Z,17.62
2022-10-01T17:43:24.665Z,17.67
2022-10-01T17:46:01.177Z,17.60
2022-10-01T17:48:29.338Z,17.57
2022-10-01T17:51:03.721Z,17.58
2022-10-01T17:53:39.852Z,17.48
2022-10-01T17:56:14.755Z,17.58
2022-10-01T17:58:45.558Z,17.41
2022-10-01T18:01:17.263Z,17.40
2022-10-01T18:03:45.608Z,17.37
2022-10-01T18:06:16.419Z,17.26
2022-10-01T18:08:55.172Z,17.16
2022-10-01T18:11:26.587Z,17.20
2022-10-01T18:13:54.044Z,17.18
2022-10-01T18:16:22.743Z,17.22
2022-10-01T18:21:45.181Z,16.97
2022-10-01T18:24:13.443Z,17.08
2022-10-01T18:26:41.810Z,16.98
2022-10-01T18:29:15.554Z,16.95
2022-10-01T18:31:45.296Z,16.84
2022-10-01T18:34:39.035Z,16.96
2022-10-01T18:37:39.831Z,16.82
2022-10-01T18:40:40.023Z,17.02
2022-10-01T18:43:18.119Z,16.81
2022-10-01T18:46:23.032Z,16.73
2022-10-01T18:49:06.447Z,16.72
2022-10-01T18:52:01.428Z,16.80
2022-10-01T18:54:48.627Z,16.77
2022-10-01T18:57:50.843Z,16.83
2022-10-01T19:00:24.860Z,16.63
2022-10-01T19:03:01.401Z,16.55
2022-10-01T19:06:09.847Z,16.49
2022-10-01T19:09:03.108Z,16.51
2022-10-01T19:11:53.424Z,16.35
2022-10-01T19:15:25.785Z,16.22
2022-10-01T19:18:21.105Z,16.06
2022-10-01T19:21:02.876Z,16.07
2022-10-01T19:23:47.627Z,16.00
2022-10-01T19:26:29.094Z,16.02
2022-10-01T19:29:40.329Z,16.02
2022-10-01T19:32:12.722Z,15.80
2022-10-01T19:35:03.447Z,15.82
2022-10-01T19:37:41.388Z,15.96
2022-10-01T19:40:35.123Z,15.96
2022-10-01T19:43:21.772Z,16.01
2022-10-01T19:46:09.402Z,16.13
2022-10-01T19:49:04.574Z,16.32
2022-10-01T19:51:43.886Z,16.38
2022-10-01T19:54:19.920Z,16.30
2022-10-01T19:56:54.635Z,16.21
2022-10-01T19:59:22.321Z,15.91
2022-10-01T20:01:59.228Z,16.04
2022-10-01T20:04:30.624Z,16.11
2022-10-01T20:07:10.247Z,16.29
2022-10-01T20:10:05.774Z,16.53
2022-10-01T20:12:55.959Z,16.62
2022-10-01T20:15:42.650Z,16.88
2022-10-01T20:18:27.790Z,16.91
2022-10-01T20:21:14.600Z,17.00
2022-10-01T20:23:53.913Z,17.02
2022-10-01T20:26:45.492Z,17.08
2022-10-01T20:29:32.480Z,17.10
2022-10-01T20:32:23.646Z,17.07
2022-10-01T20:35:06.218Z,17.08
2022-10-01T20:37:40.081Z,17.19
2022-10-01T20:40:25.252Z,17.16
2022-10-01T20:43:22.056Z,17.03
2022-10-01T20:45:52.764Z,17.13
2022-10-01T20:48:23.302Z,16.92
2022-10-01T20:50:54.196Z,17.04
2022-10-01T20:53:31.054Z,17.16
2022-10-01T20:56:08.243Z,17.27
2022-10-01T20:58:44.693Z,16.96
2022-10-01T21:01:20.759Z,16.98
2022-10-01T21:03:57.610Z,16.97
2022-10-01T21:06:40.037Z,17.12
2022-10-01T21:09:14.640Z,16.73
2022-10-01T21:11:48.050Z,16.59
2022-10-01T21:14:41.121Z,16.27
2022-10-01T21:17:24.911Z,16.33
2022-10-01T21:20:02.307Z,16.30
2022-10-01T21:23:03.345Z,16.18
2022-10-01T21:25:50.941Z,16.31
2022-10-01T21:28:52.844Z,16.30
2022-10-01T21:31:42.617Z,16.22
2022-10-01T21:34:30.078Z,16.21
2022-10-01T21:37:40.679Z,16.25
2022-10-01T21:40:43.279Z,16.39
2022-10-01T21:43:32.434Z,16.24
2022-10-01T21:46:23.548Z,16.38
2022-10-01T21:49:19.540Z,16.59
2022-10-01T21:51:58.671Z,17.07
2022-10-01T21:55:05.503Z,16.91
2022-10-01T21:57:43.497Z,16.74
2022-10-01T22:00:21.968Z,16.79
2022-10-01T22:03:17.499Z,16.64
2022-10-01T22:06:13.027Z,16.61
2022-10-01T22:08:59.904Z,16.49
2022-10-01T22:11:32.034Z,16.21
2022-10-01T22:14:03.774Z,16.23
2022-10-01T22:16:40.062Z,16.19
2022-10-01T22:19:17.476Z,16.00
2022-10-01T22:21:48.144Z,16.01
2022-10-01T22:24:33.940Z,15.69
2022-10-01T22:27:16.583Z,15.95
2022-10-01T22:30:08.245Z,16.02
2022-10-01T22:32:59.795Z,15.82
2022-10-01T22:35:35.518Z,16.00
2022-10-01T22:38:11.528Z,15.79
2022-10-01T22:40:46.021Z,15.90
2022-10-01T22:43:14.579Z,16.06
2022-10-01T22:45:48.939Z,16.16
2022-10-01T22:48:50.355Z,16.14
2022-10-01T22:51:23.862Z,16.05
2022-10-01T22:54:30.263Z,16.26
2022-10-01T22:57:07.959Z,16.18
2022-10-01T23:00:06.524Z,16.18
2022-10-01T23:02:45.736Z,16.22
2022-10-01T23:05:56.141Z,16.29
2022-10-01T23:08:40.641Z,16.24
2022-10-01T23:11:29.187Z,16.33
2022-10-01T23:14:01.295Z,16.24
2022-10-01T23:16:59.148Z,16.39
2022-10-01T23:19:33.215Z,16.28
2022-10-01T23:22:01.271Z,16.26
2022-10-01T23:24:35.679Z,16.60
2022-10-01T23:27:21.766Z,16.68
2022-10-01T23:30:08.200Z,16.45
2022-10-01T23:33:17.633Z,16.19
2022-10-01T23:36:06.543Z,16.17
2022-10-01T23:38:46.915Z,16.16
2022-10-01T23:41:25.026Z,15.93
2022-10-01T23:43:55.775Z,15.91
2022-10-01T23:46:33.244Z,15.92
2022-10-01T23:49:15.537Z,15.85
2022-10-01T23:51:53.038Z,15.87
2022-10-01T23:55:18.381Z,15.85
2022-10-01T23:57:48.588Z,15.87
